sensor_id;sensor_type;location;lat;lon;timestamp;P1;durP1;ratioP1;P2;durP2;ratioP2
70981;SDS011;58640;51.320;9.456;2023-03-14T00:01:53;2.90;;;1.30;;
70981;SDS011;58640;51.320;9.456;2023-03-14T00:04:18;2.95;;;1.20;;
70981;SDS011;58640;51.320;9.456;2023-03-14T00:06:43;1.17;;;0.90;;
70981;SDS011;58640;51.320;9.456;2023-03-14T00:09:09;1.85;;;1.05;;
70981;SDS011;58640;51.320;9.456;2023-03-14T00:11:34;2.95;;;0.77;;
70981;SDS011;58640;51.320;9.456;2023-03-14T00:14:00;3.35;;;0.90;;
70981;SDS011;58640;51.320;9.456;2023-03-14T00:16:26;2.28;;;1.08;;
70981;SDS011;58640;51.320;9.456;2023-03-14T00:18:51;1.02;;;0.70;;
70981;SDS011;58640;51.320;9.456;2023-03-14T00:21:17;3.05;;;0.85;;
70981;SDS011;58640;51.320;9.456;2023-03-14T00:23:42;1.40;;;1.02;;
70981;SDS011;58640;51.320;9.456;2023-03-14T00:26:09;1.63;;;0.82;;
70981;SDS011;58640;51.320;9.456;2023-03-14T00:28:37;3.13;;;0.82;;
70981;SDS011;58640;51.320;9.456;2023-03-14T00:31:03;0.80;;;0.80;;
70981;SDS011;58640;51.320;9.456;2023-03-14T00:33:29;3.75;;;0.70;;
70981;SDS011;58640;51.320;9.456;2023-03-14T00:35:55;2.60;;;0.70;;
70981;SDS011;58640;51.320;9.456;2023-03-14T00:38:22;2.47;;;1.10;;
70981;SDS011;58640;51.320;9.456;2023-03-14T00:40:49;1.33;;;0.90;;
70981;SDS011;58640;51.320;9.456;2023-03-14T00:43:15;0.60;;;0.60;;
70981;SDS011;58640;51.320;9.456;2023-03-14T00:45:40;2.15;;;0.60;;
70981;SDS011;58640;51.320;9.456;2023-03-14T00:48:05;1.10;;;0.80;;
70981;SDS011;58640;51.320;9.456;2023-03-14T00:50:31;1.13;;;0.88;;
70981;SDS011;58640;51.320;9.456;2023-03-14T00:52:56;1.60;;;0.70;;
70981;SDS011;58640;51.320;9.456;2023-03-14T00:55:21;3.65;;;1.00;;
70981;SDS011;58640;51.320;9.456;2023-03-14T00:57:47;1.83;;;0.70;;
70981;SDS011;58640;51.320;9.456;2023-03-14T01:00:12;3.35;;;0.85;;
70981;SDS011;58640;51.320;9.456;2023-03-14T01:02:38;0.95;;;0.77;;
70981;SDS011;58640;51.320;9.456;2023-03-14T01:05:04;1.25;;;0.70;;
70981;SDS011;58640;51.320;9.456;2023-03-14T01:07:29;0.70;;;0.70;;
70981;SDS011;58640;51.320;9.456;2023-03-14T01:09:55;2.00;;;0.75;;
70981;SDS011;58640;51.320;9.456;2023-03-14T01:12:20;1.67;;;0.82;;
70981;SDS011;58640;51.320;9.456;2023-03-14T01:14:45;1.65;;;0.77;;
70981;SDS011;58640;51.320;9.456;2023-03-14T01:17:11;0.90;;;0.82;;
70981;SDS011;58640;51.320;9.456;2023-03-14T01:19:36;1.80;;;0.85;;
70981;SDS011;58640;51.320;9.456;2023-03-14T01:22:01;3.17;;;0.50;;
70981;SDS011;58640;51.320;9.456;2023-03-14T01:24:27;1.10;;;0.85;;
70981;SDS011;58640;51.320;9.456;2023-03-14T01:26:52;0.70;;;0.70;;
70981;SDS011;58640;51.320;9.456;2023-03-14T01:29:17;1.50;;;1.20;;
70981;SDS011;58640;51.320;9.456;2023-03-14T01:31:43;1.25;;;0.95;;
70981;SDS011;58640;51.320;9.456;2023-03-14T01:34:08;1.38;;;0.80;;
70981;SDS011;58640;51.320;9.456;2023-03-14T01:36:33;1.63;;;1.00;;
70981;SDS011;58640;51.320;9.456;2023-03-14T01:38:59;1.58;;;0.90;;
70981;SDS011;58640;51.320;9.456;2023-03-14T01:41:24;1.73;;;1.15;;
70981;SDS011;58640;51.320;9.456;2023-03-14T01:43:51;2.63;;;0.90;;
70981;SDS011;58640;51.320;9.456;2023-03-14T01:46:26;1.50;;;0.80;;
70981;SDS011;58640;51.320;9.456;2023-03-14T01:49:14;1.00;;;0.90;;
70981;SDS011;58640;51.320;9.456;2023-03-14T01:51:47;1.30;;;1.20;;
70981;SDS011;58640;51.320;9.456;2023-03-14T01:54:19;1.75;;;1.33;;
70981;SDS011;58640;51.320;9.456;2023-03-14T01:57:03;2.95;;;1.30;;
70981;SDS011;58640;51.320;9.456;2023-03-14T01:59:31;3.80;;;1.13;;
70981;SDS011;58640;51.320;9.456;2023-03-14T02:01:59;2.05;;;1.60;;
70981;SDS011;58640;51.320;9.456;2023-03-14T02:04:26;4.90;;;1.40;;
70981;SDS011;58640;51.320;9.456;2023-03-14T02:07:00;1.92;;;1.55;;
70981;SDS011;58640;51.320;9.456;2023-03-14T02:09:32;3.63;;;1.10;;
70981;SDS011;58640;51.320;9.456;2023-03-14T02:11:58;1.83;;;1.33;;
70981;SDS011;58640;51.320;9.456;2023-03-14T02:14:31;2.60;;;1.02;;
70981;SDS011;58640;51.320;9.456;2023-03-14T02:16:59;2.67;;;1.48;;
70981;SDS011;58640;51.320;9.456;2023-03-14T02:19:34;4.50;;;1.42;;
70981;SDS011;58640;51.320;9.456;2023-03-14T02:22:11;2.72;;;1.30;;
70981;SDS011;58640;51.320;9.456;2023-03-14T02:24:59;12.05;;;1.55;;
70981;SDS011;58640;51.320;9.456;2023-03-14T02:27:36;2.05;;;1.40;;
70981;SDS011;58640;51.320;9.456;2023-03-14T02:32:33;4.25;;;1.52;;
70981;SDS011;58640;51.320;9.456;2023-03-14T02:35:02;6.40;;;1.60;;
70981;SDS011;58640;51.320;9.456;2023-03-14T02:37:41;2.65;;;1.40;;
70981;SDS011;58640;51.320;9.456;2023-03-14T02:40:12;1.20;;;1.10;;
70981;SDS011;58640;51.320;9.456;2023-03-14T02:42:38;3.95;;;1.60;;
70981;SDS011;58640;51.320;9.456;2023-03-14T02:47:35;2.90;;;1.40;;
70981;SDS011;58640;51.320;9.456;2023-03-14T02:50:08;3.80;;;1.52;;
70981;SDS011;58640;51.320;9.456;2023-03-14T02:52:41;3.70;;;1.45;;
70981;SDS011;58640;51.320;9.456;2023-03-14T02:55:06;3.80;;;1.48;;
70981;SDS011;58640;51.320;9.456;2023-03-14T02:57:32;4.53;;;1.50;;
70981;SDS011;58640;51.320;9.456;2023-03-14T02:59:58;3.92;;;1.67;;
70981;SDS011;58640;51.320;9.456;2023-03-14T03:02:24;6.47;;;1.65;;
70981;SDS011;58640;51.320;9.456;2023-03-14T03:04:50;4.22;;;1.73;;
70981;SDS011;58640;51.320;9.456;2023-03-14T03:07:15;3.17;;;1.38;;
70981;SDS011;58640;51.320;9.456;2023-03-14T03:09:41;2.75;;;1.17;;
70981;SDS011;58640;51.320;9.456;2023-03-14T03:12:06;3.10;;;1.60;;
70981;SDS011;58640;51.320;9.456;2023-03-14T03:14:31;4.15;;;1.50;;
70981;SDS011;58640;51.320;9.456;2023-03-14T03:16:57;3.58;;;1.75;;
70981;SDS011;58640;51.320;9.456;2023-03-14T03:19:22;4.13;;;2.97;;
70981;SDS011;58640;51.320;9.456;2023-03-14T03:21:48;3.58;;;1.70;;
70981;SDS011;58640;51.320;9.456;2023-03-14T03:24:13;5.75;;;1.85;;
70981;SDS011;58640;51.320;9.456;2023-03-14T03:26:39;6.03;;;1.48;;
70981;SDS011;58640;51.320;9.456;2023-03-14T03:29:04;6.50;;;1.60;;
70981;SDS011;58640;51.320;9.456;2023-03-14T03:31:29;2.30;;;1.20;;
70981;SDS011;58640;51.320;9.456;2023-03-14T03:33:56;3.42;;;1.48;;
70981;SDS011;58640;51.320;9.456;2023-03-14T03:36:22;6.20;;;1.50;;
70981;SDS011;58640;51.320;9.456;2023-03-14T03:38:48;5.65;;;1.73;;
70981;SDS011;58640;51.320;9.456;2023-03-14T03:41:14;2.78;;;1.40;;
70981;SDS011;58640;51.320;9.456;2023-03-14T03:43:39;2.88;;;1.33;;
70981;SDS011;58640;51.320;9.456;2023-03-14T03:46:05;3.45;;;1.52;;
70981;SDS011;58640;51.320;9.456;2023-03-14T03:48:31;2.10;;;1.05;;
70981;SDS011;58640;51.320;9.456;2023-03-14T03:50:57;1.85;;;1.00;;
70981;SDS011;58640;51.320;9.456;2023-03-14T03:53:22;1.95;;;1.30;;
70981;SDS011;58640;51.320;9.456;2023-03-14T03:55:48;3.75;;;1.33;;
70981;SDS011;58640;51.320;9.456;2023-03-14T03:58:13;4.28;;;1.35;;
70981;SDS011;58640;51.320;9.456;2023-03-14T04:00:38;1.42;;;0.98;;
70981;SDS011;58640;51.320;9.456;2023-03-14T04:03:04;4.97;;;0.95;;
70981;SDS011;58640;51.320;9.456;2023-03-14T04:05:29;3.55;;;1.20;;
70981;SDS011;58640;51.320;9.456;2023-03-14T04:07:55;1.98;;;1.55;;
70981;SDS011;58640;51.320;9.456;2023-03-14T04:10:20;3.78;;;1.80;;
70981;SDS011;58640;51.320;9.456;2023-03-14T04:12:45;3.78;;;1.33;;
70981;SDS011;58640;51.320;9.456;2023-03-14T04:15:11;4.32;;;1.42;;
70981;SDS011;58640;51.320;9.456;2023-03-14T04:17:36;3.70;;;1.42;;
70981;SDS011;58640;51.320;9.456;2023-03-14T04:20:02;4.50;;;1.55;;
70981;SDS011;58640;51.320;9.456;2023-03-14T04:22:28;4.13;;;1.40;;
70981;SDS011;58640;51.320;9.456;2023-03-14T04:24:53;3.92;;;1.73;;
70981;SDS011;58640;51.320;9.456;2023-03-14T04:27:19;3.22;;;1.70;;
70981;SDS011;58640;51.320;9.456;2023-03-14T04:29:44;3.13;;;1.50;;
70981;SDS011;58640;51.320;9.456;2023-03-14T04:32:10;4.72;;;1.48;;
70981;SDS011;58640;51.320;9.456;2023-03-14T04:34:35;3.90;;;1.30;;
70981;SDS011;58640;51.320;9.456;2023-03-14T04:37:00;4.05;;;1.40;;
70981;SDS011;58640;51.320;9.456;2023-03-14T04:39:26;3.15;;;1.10;;
70981;SDS011;58640;51.320;9.456;2023-03-14T04:41:51;7.18;;;1.33;;
70981;SDS011;58640;51.320;9.456;2023-03-14T04:44:17;4.63;;;1.30;;
70981;SDS011;58640;51.320;9.456;2023-03-14T04:46:42;4.78;;;1.20;;
70981;SDS011;58640;51.320;9.456;2023-03-14T04:49:08;5.82;;;1.33;;
70981;SDS011;58640;51.320;9.456;2023-03-14T04:51:33;2.67;;;1.10;;
70981;SDS011;58640;51.320;9.456;2023-03-14T04:53:58;3.22;;;1.00;;
70981;SDS011;58640;51.320;9.456;2023-03-14T04:56:24;5.03;;;1.10;;
70981;SDS011;58640;51.320;9.456;2023-03-14T04:58:49;5.38;;;1.00;;
70981;SDS011;58640;51.320;9.456;2023-03-14T05:01:14;6.65;;;1.60;;
70981;SDS011;58640;51.320;9.456;2023-03-14T05:03:40;9.52;;;1.30;;
70981;SDS011;58640;51.320;9.456;2023-03-14T05:06:05;2.33;;;1.35;;
70981;SDS011;58640;51.320;9.456;2023-03-14T05:08:31;6.57;;;1.17;;
70981;SDS011;58640;51.320;9.456;2023-03-14T05:10:56;5.20;;;0.95;;
70981;SDS011;58640;51.320;9.456;2023-03-14T05:13:22;5.95;;;1.35;;
70981;SDS011;58640;51.320;9.456;2023-03-14T05:15:48;4.38;;;1.45;;
70981;SDS011;58640;51.320;9.456;2023-03-14T05:18:15;2.80;;;1.10;;
70981;SDS011;58640;51.320;9.456;2023-03-14T05:20:40;7.60;;;1.42;;
70981;SDS011;58640;51.320;9.456;2023-03-14T05:23:08;5.05;;;0.95;;
70981;SDS011;58640;51.320;9.456;2023-03-14T05:25:33;8.27;;;1.38;;
70981;SDS011;58640;51.320;9.456;2023-03-14T05:27:58;11.02;;;1.52;;
70981;SDS011;58640;51.320;9.456;2023-03-14T05:30:24;5.20;;;1.00;;
70981;SDS011;58640;51.320;9.456;2023-03-14T05:32:49;3.00;;;1.65;;
70981;SDS011;58640;51.320;9.456;2023-03-14T05:35:14;5.03;;;1.13;;
70981;SDS011;58640;51.320;9.456;2023-03-14T05:37:40;4.55;;;1.50;;
70981;SDS011;58640;51.320;9.456;2023-03-14T05:40:05;8.02;;;1.30;;
70981;SDS011;58640;51.320;9.456;2023-03-14T05:42:32;5.05;;;1.38;;
70981;SDS011;58640;51.320;9.456;2023-03-14T05:44:58;5.90;;;1.25;;
70981;SDS011;58640;51.320;9.456;2023-03-14T05:47:23;2.97;;;1.00;;
70981;SDS011;58640;51.320;9.456;2023-03-14T05:49:48;5.28;;;2.00;;
70981;SDS011;58640;51.320;9.456;2023-03-14T05:52:14;2.83;;;1.05;;
70981;SDS011;58640;51.320;9.456;2023-03-14T05:54:39;5.28;;;1.10;;
70981;SDS011;58640;51.320;9.456;2023-03-14T05:57:05;4.18;;;1.98;;
70981;SDS011;58640;51.320;9.456;2023-03-14T05:59:31;5.07;;;1.48;;
70981;SDS011;58640;51.320;9.456;2023-03-14T06:01:56;7.53;;;2.47;;
70981;SDS011;58640;51.320;9.456;2023-03-14T06:04:22;6.35;;;1.30;;
70981;SDS011;58640;51.320;9.456;2023-03-14T06:06:47;5.15;;;1.38;;
70981;SDS011;58640;51.320;9.456;2023-03-14T06:09:12;6.47;;;1.63;;
70981;SDS011;58640;51.320;9.456;2023-03-14T06:11:38;3.90;;;1.27;;
70981;SDS011;58640;51.320;9.456;2023-03-14T06:14:03;6.70;;;1.40;;
70981;SDS011;58640;51.320;9.456;2023-03-14T06:16:29;5.57;;;1.63;;
70981;SDS011;58640;51.320;9.456;2023-03-14T06:18:54;8.40;;;1.70;;
70981;SDS011;58640;51.320;9.456;2023-03-14T06:21:19;6.47;;;1.65;;
70981;SDS011;58640;51.320;9.456;2023-03-14T06:23:45;10.00;;;1.90;;
70981;SDS011;58640;51.320;9.456;2023-03-14T06:26:10;5.15;;;1.60;;
70981;SDS011;58640;51.320;9.456;2023-03-14T06:28:36;3.65;;;1.60;;
70981;SDS011;58640;51.320;9.456;2023-03-14T06:31:02;6.80;;;1.40;;
70981;SDS011;58640;51.320;9.456;2023-03-14T06:33:28;3.58;;;1.58;;
70981;SDS011;58640;51.320;9.456;2023-03-14T06:35:53;5.75;;;1.35;;
70981;SDS011;58640;51.320;9.456;2023-03-14T06:38:19;4.13;;;1.42;;
70981;SDS011;58640;51.320;9.456;2023-03-14T06:40:44;5.07;;;1.25;;
70981;SDS011;58640;51.320;9.456;2023-03-14T06:43:10;2.28;;;1.23;;
70981;SDS011;58640;51.320;9.456;2023-03-14T06:45:35;3.97;;;0.90;;
70981;SDS011;58640;51.320;9.456;2023-03-14T06:48:01;2.42;;;0.95;;
70981;SDS011;58640;51.320;9.456;2023-03-14T06:50:27;3.58;;;1.13;;
70981;SDS011;58640;51.320;9.456;2023-03-14T06:52:52;2.30;;;1.15;;
70981;SDS011;58640;51.320;9.456;2023-03-14T06:55:17;4.72;;;1.55;;
70981;SDS011;58640;51.320;9.456;2023-03-14T06:57:43;4.35;;;1.30;;
70981;SDS011;58640;51.320;9.456;2023-03-14T07:00:09;3.45;;;1.05;;
70981;SDS011;58640;51.320;9.456;2023-03-14T07:02:36;2.60;;;1.40;;
70981;SDS011;58640;51.320;9.456;2023-03-14T07:05:01;6.40;;;1.48;;
70981;SDS011;58640;51.320;9.456;2023-03-14T07:07:27;3.95;;;1.10;;
70981;SDS011;58640;51.320;9.456;2023-03-14T07:09:52;5.57;;;1.20;;
70981;SDS011;58640;51.320;9.456;2023-03-14T07:12:17;6.90;;;1.05;;
70981;SDS011;58640;51.320;9.456;2023-03-14T07:14:43;5.38;;;1.25;;
70981;SDS011;58640;51.320;9.456;2023-03-14T07:17:08;2.13;;;0.90;;
70981;SDS011;58640;51.320;9.456;2023-03-14T07:19:34;3.17;;;0.98;;
70981;SDS011;58640;51.320;9.456;2023-03-14T07:21:59;1.88;;;0.98;;
70981;SDS011;58640;51.320;9.456;2023-03-14T07:24:24;3.42;;;1.02;;
70981;SDS011;58640;51.320;9.456;2023-03-14T07:26:50;1.65;;;0.90;;
70981;SDS011;58640;51.320;9.456;2023-03-14T07:29:15;3.95;;;1.45;;
70981;SDS011;58640;51.320;9.456;2023-03-14T07:31:40;5.25;;;1.00;;
70981;SDS011;58640;51.320;9.456;2023-03-14T07:34:06;4.13;;;0.98;;
70981;SDS011;58640;51.320;9.456;2023-03-14T07:36:31;2.45;;;0.80;;
70981;SDS011;58640;51.320;9.456;2023-03-14T07:38:57;2.17;;;0.77;;
70981;SDS011;58640;51.320;9.456;2023-03-14T07:41:22;2.22;;;0.95;;
70981;SDS011;58640;51.320;9.456;2023-03-14T07:43:48;3.35;;;1.25;;
70981;SDS011;58640;51.320;9.456;2023-03-14T07:46:13;2.20;;;0.77;;
70981;SDS011;58640;51.320;9.456;2023-03-14T07:48:40;1.50;;;1.15;;
70981;SDS011;58640;51.320;9.456;2023-03-14T07:51:05;2.17;;;1.13;;
70981;SDS011;58640;51.320;9.456;2023-03-14T07:53:31;3.28;;;1.05;;
70981;SDS011;58640;51.320;9.456;2023-03-14T07:55:56;5.45;;;0.90;;
70981;SDS011;58640;51.320;9.456;2023-03-14T07:58:22;4.45;;;1.83;;
70981;SDS011;58640;51.320;9.456;2023-03-14T08:00:47;3.13;;;1.02;;
70981;SDS011;58640;51.320;9.456;2023-03-14T08:03:13;3.40;;;1.27;;
70981;SDS011;58640;51.320;9.456;2023-03-14T08:05:39;3.42;;;1.17;;
70981;SDS011;58640;51.320;9.456;2023-03-14T08:08:05;2.13;;;0.88;;
70981;SDS011;58640;51.320;9.456;2023-03-14T08:10:31;2.33;;;0.90;;
70981;SDS011;58640;51.320;9.456;2023-03-14T08:12:57;3.22;;;1.02;;
70981;SDS011;58640;51.320;9.456;2023-03-14T08:15:24;1.90;;;1.00;;
70981;SDS011;58640;51.320;9.456;2023-03-14T08:17:49;3.55;;;0.90;;
70981;SDS011;58640;51.320;9.456;2023-03-14T08:20:19;1.67;;;0.75;;
70981;SDS011;58640;51.320;9.456;2023-03-14T08:22:45;2.58;;;0.80;;
70981;SDS011;58640;51.320;9.456;2023-03-14T08:25:10;3.35;;;0.80;;
70981;SDS011;58640;51.320;9.456;2023-03-14T08:27:36;3.13;;;0.52;;
70981;SDS011;58640;51.320;9.456;2023-03-14T08:30:03;2.53;;;1.13;;
70981;SDS011;58640;51.320;9.456;2023-03-14T08:32:30;2.72;;;0.70;;
70981;SDS011;58640;51.320;9.456;2023-03-14T08:34:55;3.35;;;1.88;;
70981;SDS011;58640;51.320;9.456;2023-03-14T08:37:21;1.02;;;0.50;;
70981;SDS011;58640;51.320;9.456;2023-03-14T08:39:46;3.47;;;0.95;;
70981;SDS011;58640;51.320;9.456;2023-03-14T08:42:11;2.28;;;0.60;;
70981;SDS011;58640;51.320;9.456;2023-03-14T08:44:37;0.70;;;0.57;;
70981;SDS011;58640;51.320;9.456;2023-03-14T08:47:02;4.00;;;0.73;;
70981;SDS011;58640;51.320;9.456;2023-03-14T08:49:29;1.27;;;0.43;;
70981;SDS011;58640;51.320;9.456;2023-03-14T08:51:54;4.35;;;0.50;;
70981;SDS011;58640;51.320;9.456;2023-03-14T08:54:19;0.90;;;0.38;;
70981;SDS011;58640;51.320;9.456;2023-03-14T08:56:45;0.65;;;0.40;;
70981;SDS011;58640;51.320;9.456;2023-03-14T08:59:10;2.75;;;0.30;;
70981;SDS011;58640;51.320;9.456;2023-03-14T09:01:36;1.75;;;0.20;;
70981;SDS011;58640;51.320;9.456;2023-03-14T09:04:01;0.32;;;0.28;;
70981;SDS011;58640;51.320;9.456;2023-03-14T09:06:27;0.82;;;0.35;;
70981;SDS011;58640;51.320;9.456;2023-03-14T09:08:52;1.17;;;0.30;;
70981;SDS011;58640;51.320;9.456;2023-03-14T09:11:18;1.27;;;0.30;;
70981;SDS011;58640;51.320;9.456;2023-03-14T09:13:43;2.08;;;0.63;;
70981;SDS011;58640;51.320;9.456;2023-03-14T09:16:09;0.50;;;0.30;;
70981;SDS011;58640;51.320;9.456;2023-03-14T09:18:34;1.35;;;0.32;;
70981;SDS011;58640;51.320;9.456;2023-03-14T09:21:00;0.50;;;0.20;;
70981;SDS011;58640;51.320;9.456;2023-03-14T09:23:26;2.15;;;0.40;;
70981;SDS011;58640;51.320;9.456;2023-03-14T09:25:55;2.00;;;0.52;;
70981;SDS011;58640;51.320;9.456;2023-03-14T09:28:23;1.88;;;0.60;;
70981;SDS011;58640;51.320;9.456;2023-03-14T09:30:49;2.03;;;0.40;;
70981;SDS011;58640;51.320;9.456;2023-03-14T09:33:15;0.52;;;0.30;;
70981;SDS011;58640;51.320;9.456;2023-03-14T09:35:41;1.40;;;0.88;;
70981;SDS011;58640;51.320;9.456;2023-03-14T09:38:06;1.70;;;0.40;;
70981;SDS011;58640;51.320;9.456;2023-03-14T09:40:33;1.48;;;0.40;;
70981;SDS011;58640;51.320;9.456;2023-03-14T09:43:00;1.20;;;0.50;;
70981;SDS011;58640;51.320;9.456;2023-03-14T09:45:29;2.28;;;0.73;;
70981;SDS011;58640;51.320;9.456;2023-03-14T09:47:59;1.90;;;1.17;;
70981;SDS011;58640;51.320;9.456;2023-03-14T09:50:27;0.88;;;0.52;;
70981;SDS011;58640;51.320;9.456;2023-03-14T09:53:03;1.98;;;0.50;;
70981;SDS011;58640;51.320;9.456;2023-03-14T09:55:31;1.15;;;0.80;;
70981;SDS011;58640;51.320;9.456;2023-03-14T09:57:58;1.58;;;0.85;;
70981;SDS011;58640;51.320;9.456;2023-03-14T10:00:29;3.38;;;0.88;;
70981;SDS011;58640;51.320;9.456;2023-03-14T10:02:57;1.40;;;0.60;;
70981;SDS011;58640;51.320;9.456;2023-03-14T10:05:32;0.47;;;0.40;;
70981;SDS011;58640;51.320;9.456;2023-03-14T10:07:57;1.02;;;0.68;;
70981;SDS011;58640;51.320;9.456;2023-03-14T10:10:24;1.17;;;0.50;;
70981;SDS011;58640;51.320;9.456;2023-03-14T10:12:58;1.48;;;0.98;;
70981;SDS011;58640;51.320;9.456;2023-03-14T10:15:30;1.25;;;0.65;;
70981;SDS011;58640;51.320;9.456;2023-03-14T10:17:58;1.55;;;0.75;;
70981;SDS011;58640;51.320;9.456;2023-03-14T10:20:26;1.77;;;0.80;;
70981;SDS011;58640;51.320;9.456;2023-03-14T10:22:54;1.88;;;0.90;;
70981;SDS011;58640;51.320;9.456;2023-03-14T10:25:25;3.38;;;1.60;;
70981;SDS011;58640;51.320;9.456;2023-03-14T10:27:54;2.58;;;1.02;;
70981;SDS011;58640;51.320;9.456;2023-03-14T10:33:09;0.80;;;0.80;;
70981;SDS011;58640;51.320;9.456;2023-03-14T10:35:37;1.23;;;0.85;;
70981;SDS011;58640;51.320;9.456;2023-03-14T10:38:03;2.38;;;1.00;;
70981;SDS011;58640;51.320;9.456;2023-03-14T10:40:38;1.75;;;0.75;;
70981;SDS011;58640;51.320;9.456;2023-03-14T10:43:06;0.70;;;0.70;;
70981;SDS011;58640;51.320;9.456;2023-03-14T10:45:38;3.22;;;0.68;;
70981;SDS011;58640;51.320;9.456;2023-03-14T10:53:49;3.08;;;1.27;;
70981;SDS011;58640;51.320;9.456;2023-03-14T10:56:23;2.80;;;1.52;;
70981;SDS011;58640;51.320;9.456;2023-03-14T10:58:54;1.42;;;0.70;;
70981;SDS011;58640;51.320;9.456;2023-03-14T11:04:25;2.28;;;1.58;;
70981;SDS011;58640;51.320;9.456;2023-03-14T11:12:21;0.80;;;0.77;;
70981;SDS011;58640;51.320;9.456;2023-03-14T11:15:15;1.38;;;0.60;;
70981;SDS011;58640;51.320;9.456;2023-03-14T11:29:23;2.38;;;0.95;;
70981;SDS011;58640;51.320;9.456;2023-03-14T11:32:13;1.50;;;0.50;;
70981;SDS011;58640;51.320;9.456;2023-03-14T11:34:48;1.55;;;0.50;;
70981;SDS011;58640;51.320;9.456;2023-03-14T11:37:26;0.82;;;0.40;;
70981;SDS011;58640;51.320;9.456;2023-03-14T11:42:30;1.13;;;0.22;;
70981;SDS011;58640;51.320;9.456;2023-03-14T11:44:57;0.40;;;0.20;;
70981;SDS011;58640;51.320;9.456;2023-03-14T11:47:26;0.20;;;0.20;;
70981;SDS011;58640;51.320;9.456;2023-03-14T11:50:30;0.95;;;0.20;;
70981;SDS011;58640;51.320;9.456;2023-03-14T11:55:45;1.20;;;0.20;;
70981;SDS011;58640;51.320;9.456;2023-03-14T12:00:39;0.70;;;0.20;;
70981;SDS011;58640;51.320;9.456;2023-03-14T12:13:56;1.60;;;0.55;;
70981;SDS011;58640;51.320;9.456;2023-03-14T12:18:52;2.30;;;0.60;;
70981;SDS011;58640;51.320;9.456;2023-03-14T12:21:18;0.82;;;0.32;;
70981;SDS011;58640;51.320;9.456;2023-03-14T12:23:49;0.30;;;0.30;;
70981;SDS011;58640;51.320;9.456;2023-03-14T12:26:18;0.75;;;0.30;;
70981;SDS011;58640;51.320;9.456;2023-03-14T12:36:51;0.63;;;0.43;;
70981;SDS011;58640;51.320;9.456;2023-03-14T12:39:24;0.63;;;0.60;;
70981;SDS011;58640;51.320;9.456;2023-03-14T12:42:12;0.80;;;0.20;;
70981;SDS011;58640;51.320;9.456;2023-03-14T12:48:10;0.20;;;0.20;;
70981;SDS011;58640;51.320;9.456;2023-03-14T12:50:53;3.90;;;2.60;;
70981;SDS011;58640;51.320;9.456;2023-03-14T12:56:23;0.32;;;0.32;;
70981;SDS011;58640;51.320;9.456;2023-03-14T12:59:01;0.30;;;0.30;;
70981;SDS011;58640;51.320;9.456;2023-03-14T13:01:53;0.20;;;0.20;;
70981;SDS011;58640;51.320;9.456;2023-03-14T13:04:26;0.20;;;0.20;;
70981;SDS011;58640;51.320;9.456;2023-03-14T13:06:54;0.20;;;0.20;;
70981;SDS011;58640;51.320;9.456;2023-03-14T13:12:17;0.10;;;0.10;;
70981;SDS011;58640;51.320;9.456;2023-03-14T13:14:48;0.20;;;0.20;;
70981;SDS011;58640;51.320;9.456;2023-03-14T13:17:19;0.38;;;0.30;;
70981;SDS011;58640;51.320;9.456;2023-03-14T13:19:53;0.20;;;0.20;;
70981;SDS011;58640;51.320;9.456;2023-03-14T13:22:29;0.22;;;0.22;;
70981;SDS011;58640;51.320;9.456;2023-03-14T13:25:03;0.30;;;0.30;;
70981;SDS011;58640;51.320;9.456;2023-03-14T13:27:31;0.55;;;0.50;;
70981;SDS011;58640;51.320;9.456;2023-03-14T13:29:58;0.22;;;0.22;;
70981;SDS011;58640;51.320;9.456;2023-03-14T13:32:27;1.42;;;0.80;;
70981;SDS011;58640;51.320;9.456;2023-03-14T13:34:57;0.30;;;0.30;;
70981;SDS011;58640;51.320;9.456;2023-03-14T13:37:23;0.20;;;0.20;;
70981;SDS011;58640;51.320;9.456;2023-03-14T13:39:50;0.17;;;0.17;;
70981;SDS011;58640;51.320;9.456;2023-03-14T13:42:18;0.20;;;0.20;;
70981;SDS011;58640;51.320;9.456;2023-03-14T13:44:43;0.22;;;0.22;;
70981;SDS011;58640;51.320;9.456;2023-03-14T13:47:12;0.30;;;0.30;;
70981;SDS011;58640;51.320;9.456;2023-03-14T13:49:41;0.20;;;0.20;;
70981;SDS011;58640;51.320;9.456;2023-03-14T13:54:57;1.45;;;0.40;;
70981;SDS011;58640;51.320;9.456;2023-03-14T13:57:25;1.33;;;0.70;;
70981;SDS011;58640;51.320;9.456;2023-03-14T14:00:00;2.97;;;1.20;;
70981;SDS011;58640;51.320;9.456;2023-03-14T14:02:36;5.43;;;0.68;;
70981;SDS011;58640;51.320;9.456;2023-03-14T14:05:02;1.55;;;0.88;;
70981;SDS011;58640;51.320;9.456;2023-03-14T14:07:28;1.95;;;0.88;;
70981;SDS011;58640;51.320;9.456;2023-03-14T14:09:54;7.75;;;0.93;;
70981;SDS011;58640;51.320;9.456;2023-03-14T14:12:22;1.65;;;0.93;;
70981;SDS011;58640;51.320;9.456;2023-03-14T14:18:01;8.90;;;2.05;;
70981;SDS011;58640;51.320;9.456;2023-03-14T14:20:42;9.85;;;1.30;;
70981;SDS011;58640;51.320;9.456;2023-03-14T14:23:21;5.35;;;1.40;;
70981;SDS011;58640;51.320;9.456;2023-03-14T14:25:54;8.68;;;1.02;;
70981;SDS011;58640;51.320;9.456;2023-03-14T14:28:23;3.90;;;1.30;;
70981;SDS011;58640;51.320;9.456;2023-03-14T14:33:58;9.50;;;1.48;;
70981;SDS011;58640;51.320;9.456;2023-03-14T14:39:03;12.13;;;0.93;;
70981;SDS011;58640;51.320;9.456;2023-03-14T14:41:43;3.47;;;1.05;;
70981;SDS011;58640;51.320;9.456;2023-03-14T14:44:12;6.28;;;1.10;;
70981;SDS011;58640;51.320;9.456;2023-03-14T14:46:41;3.83;;;0.98;;
70981;SDS011;58640;51.320;9.456;2023-03-14T14:49:11;2.90;;;0.98;;
70981;SDS011;58640;51.320;9.456;2023-03-14T14:51:43;4.30;;;1.08;;
70981;SDS011;58640;51.320;9.456;2023-03-14T14:54:37;3.25;;;1.08;;
70981;SDS011;58640;51.320;9.456;2023-03-14T14:57:05;5.78;;;1.00;;
70981;SDS011;58640;51.320;9.456;2023-03-14T14:59:41;4.13;;;0.90;;
70981;SDS011;58640;51.320;9.456;2023-03-14T15:02:09;7.07;;;1.63;;
70981;SDS011;58640;51.320;9.456;2023-03-14T15:05:00;7.57;;;1.30;;
70981;SDS011;58640;51.320;9.456;2023-03-14T15:07:25;6.05;;;1.27;;
70981;SDS011;58640;51.320;9.456;2023-03-14T15:09:50;6.18;;;1.15;;
70981;SDS011;58640;51.320;9.456;2023-03-14T15:12:16;3.53;;;1.08;;
70981;SDS011;58640;51.320;9.456;2023-03-14T15:14:41;8.98;;;1.58;;
70981;SDS011;58640;51.320;9.456;2023-03-14T15:17:09;4.93;;;0.90;;
70981;SDS011;58640;51.320;9.456;2023-03-14T15:19:36;1.80;;;1.10;;
70981;SDS011;58640;51.320;9.456;2023-03-14T15:22:01;3.47;;;1.23;;
70981;SDS011;58640;51.320;9.456;2023-03-14T15:24:26;14.43;;;1.75;;
70981;SDS011;58640;51.320;9.456;2023-03-14T15:26:52;14.48;;;1.40;;
70981;SDS011;58640;51.320;9.456;2023-03-14T15:29:17;5.93;;;1.23;;
70981;SDS011;58640;51.320;9.456;2023-03-14T15:31:43;9.30;;;1.40;;
70981;SDS011;58640;51.320;9.456;2023-03-14T15:34:08;8.75;;;1.80;;
70981;SDS011;58640;51.320;9.456;2023-03-14T15:36:35;13.55;;;2.00;;
70981;SDS011;58640;51.320;9.456;2023-03-14T15:39:01;19.35;;;2.35;;
70981;SDS011;58640;51.320;9.456;2023-03-14T15:41:28;8.57;;;1.83;;
70981;SDS011;58640;51.320;9.456;2023-03-14T15:43:53;9.60;;;2.17;;
70981;SDS011;58640;51.320;9.456;2023-03-14T15:46:19;11.80;;;1.48;;
70981;SDS011;58640;51.320;9.456;2023-03-14T15:48:46;14.07;;;1.77;;
70981;SDS011;58640;51.320;9.456;2023-03-14T15:51:13;10.63;;;1.77;;
70981;SDS011;58640;51.320;9.456;2023-03-14T15:53:39;11.35;;;1.58;;
70981;SDS011;58640;51.320;9.456;2023-03-14T15:56:05;11.57;;;1.80;;
70981;SDS011;58640;51.320;9.456;2023-03-14T15:58:32;15.65;;;2.30;;
70981;SDS011;58640;51.320;9.456;2023-03-14T16:00:59;8.52;;;1.65;;
70981;SDS011;58640;51.320;9.456;2023-03-14T16:03:26;12.57;;;2.10;;
70981;SDS011;58640;51.320;9.456;2023-03-14T16:05:52;13.45;;;1.75;;
70981;SDS011;58640;51.320;9.456;2023-03-14T16:08:18;15.23;;;2.30;;
70981;SDS011;58640;51.320;9.456;2023-03-14T16:10:44;13.60;;;2.30;;
70981;SDS011;58640;51.320;9.456;2023-03-14T16:13:10;21.10;;;4.55;;
70981;SDS011;58640;51.320;9.456;2023-03-14T16:15:35;12.23;;;2.05;;